sensor_id;sensor_type;location;lat;lon;timestamp;P1;durP1;ratioP1;P2;durP2;ratioP2
2438;SDS011;14509;47.992;7.848;2022-08-16T00:00:11;4.90;;;4.27;;
2438;SDS011;14509;47.992;7.848;2022-08-16T00:02:14;5.83;;;4.57;;
2438;SDS011;14509;47.992;7.848;2022-08-16T00:04:16;5.63;;;5.13;;
2438;SDS011;14509;47.992;7.848;2022-08-16T00:06:19;6.03;;;5.53;;
2438;SDS011;14509;47.992;7.848;2022-08-16T00:08:22;4.83;;;4.43;;
2438;SDS011;14509;47.992;7.848;2022-08-16T00:10:25;5.90;;;4.47;;
2438;SDS011;14509;47.992;7.848;2022-08-16T00:12:29;6.23;;;5.20;;
2438;SDS011;14509;47.992;7.848;2022-08-16T00:14:31;5.60;;;4.97;;
2438;SDS011;14509;47.992;7.848;2022-08-16T00:16:34;4.97;;;4.57;;
2438;SDS011;14509;47.992;7.848;2022-08-16T00:18:36;5.37;;;4.87;;
2438;SDS011;14509;47.992;7.848;2022-08-16T00:20:39;5.20;;;4.70;;
2438;SDS011;14509;47.992;7.848;2022-08-16T00:22:43;5.37;;;4.83;;
2438;SDS011;14509;47.992;7.848;2022-08-16T00:24:45;6.40;;;5.67;;
2438;SDS011;14509;47.992;7.848;2022-08-16T00:26:47;4.57;;;4.17;;
2438;SDS011;14509;47.992;7.848;2022-08-16T00:28:50;5.53;;;4.70;;
2438;SDS011;14509;47.992;7.848;2022-08-16T00:30:52;5.30;;;4.80;;
2438;SDS011;14509;47.992;7.848;2022-08-16T00:32:54;6.03;;;5.17;;
2438;SDS011;14509;47.992;7.848;2022-08-16T00:34:58;7.47;;;5.00;;
2438;SDS011;14509;47.992;7.848;2022-08-16T00:37:01;4.97;;;4.57;;
2438;SDS011;14509;47.992;7.848;2022-08-16T00:39:11;6.17;;;5.57;;
2438;SDS011;14509;47.992;7.848;2022-08-16T00:41:13;6.80;;;6.20;;
2438;SDS011;14509;47.992;7.848;2022-08-16T00:43:16;5.10;;;4.60;;
2438;SDS011;14509;47.992;7.848;2022-08-16T00:45:24;5.40;;;4.90;;
2438;SDS011;14509;47.992;7.848;2022-08-16T00:47:30;5.50;;;5.00;;
2438;SDS011;14509;47.992;7.848;2022-08-16T00:49:34;7.50;;;4.33;;
2438;SDS011;14509;47.992;7.848;2022-08-16T00:51:36;9.33;;;4.90;;
2438;SDS011;14509;47.992;7.848;2022-08-16T00:53:39;4.73;;;4.33;;
2438;SDS011;14509;47.992;7.848;2022-08-16T00:55:43;5.17;;;4.70;;
2438;SDS011;14509;47.992;7.848;2022-08-16T00:57:47;4.90;;;4.50;;
2438;SDS011;14509;47.992;7.848;2022-08-16T00:59:50;4.90;;;4.43;;
2438;SDS011;14509;47.992;7.848;2022-08-16T01:01:52;7.20;;;5.50;;
2438;SDS011;14509;47.992;7.848;2022-08-16T01:03:55;6.37;;;5.40;;
2438;SDS011;14509;47.992;7.848;2022-08-16T01:05:57;5.00;;;4.50;;
2438;SDS011;14509;47.992;7.848;2022-08-16T01:08:00;5.87;;;5.20;;
2438;SDS011;14509;47.992;7.848;2022-08-16T01:10:03;7.00;;;5.30;;
2438;SDS011;14509;47.992;7.848;2022-08-16T01:12:07;5.33;;;4.93;;
2438;SDS011;14509;47.992;7.848;2022-08-16T01:14:11;5.30;;;4.80;;
2438;SDS011;14509;47.992;7.848;2022-08-16T01:16:19;6.00;;;5.50;;
2438;SDS011;14509;47.992;7.848;2022-08-16T01:18:25;6.03;;;5.50;;
2438;SDS011;14509;47.992;7.848;2022-08-16T01:20:33;6.00;;;5.40;;
2438;SDS011;14509;47.992;7.848;2022-08-16T01:22:43;11.53;;;5.50;;
2438;SDS011;14509;47.992;7.848;2022-08-16T01:24:54;5.83;;;5.23;;
2438;SDS011;14509;47.992;7.848;2022-08-16T01:27:01;6.00;;;5.40;;
2438;SDS011;14509;47.992;7.848;2022-08-16T01:29:08;7.90;;;5.37;;
2438;SDS011;14509;47.992;7.848;2022-08-16T01:31:13;6.83;;;5.30;;
2438;SDS011;14509;47.992;7.848;2022-08-16T01:33:17;5.47;;;4.97;;
2438;SDS011;14509;47.992;7.848;2022-08-16T01:35:29;6.23;;;5.63;;
2438;SDS011;14509;47.992;7.848;2022-08-16T01:37:39;5.20;;;4.73;;
2438;SDS011;14509;47.992;7.848;2022-08-16T01:39:43;5.70;;;5.10;;
2438;SDS011;14509;47.992;7.848;2022-08-16T01:41:46;7.13;;;5.60;;
2438;SDS011;14509;47.992;7.848;2022-08-16T01:43:48;6.60;;;6.00;;
2438;SDS011;14509;47.992;7.848;2022-08-16T01:45:52;11.53;;;5.90;;
2438;SDS011;14509;47.992;7.848;2022-08-16T01:47:55;6.20;;;5.60;;
2438;SDS011;14509;47.992;7.848;2022-08-16T01:49:57;6.13;;;5.47;;
2438;SDS011;14509;47.992;7.848;2022-08-16T01:51:59;6.47;;;5.93;;
2438;SDS011;14509;47.992;7.848;2022-08-16T01:54:23;5.67;;;5.20;;
2438;SDS011;14509;47.992;7.848;2022-08-16T01:56:26;5.93;;;5.43;;
2438;SDS011;14509;47.992;7.848;2022-08-16T01:58:30;6.77;;;6.17;;
2438;SDS011;14509;47.992;7.848;2022-08-16T02:00:33;7.40;;;6.70;;
2438;SDS011;14509;47.992;7.848;2022-08-16T02:02:35;6.90;;;5.80;;
2438;SDS011;14509;47.992;7.848;2022-08-16T02:04:36;7.10;;;5.97;;
2438;SDS011;14509;47.992;7.848;2022-08-16T02:06:38;6.30;;;5.70;;
2438;SDS011;14509;47.992;7.848;2022-08-16T02:08:41;6.67;;;5.50;;
2438;SDS011;14509;47.992;7.848;2022-08-16T02:10:43;6.37;;;5.80;;
2438;SDS011;14509;47.992;7.848;2022-08-16T02:12:45;5.60;;;5.10;;
2438;SDS011;14509;47.992;7.848;2022-08-16T02:14:48;6.20;;;5.60;;
2438;SDS011;14509;47.992;7.848;2022-08-16T02:16:51;6.47;;;5.87;;
2438;SDS011;14509;47.992;7.848;2022-08-16T02:18:53;7.47;;;6.60;;
2438;SDS011;14509;47.992;7.848;2022-08-16T02:20:55;6.63;;;6.00;;
2438;SDS011;14509;47.992;7.848;2022-08-16T02:22:57;9.13;;;6.03;;
2438;SDS011;14509;47.992;7.848;2022-08-16T02:25:00;6.00;;;5.47;;
2438;SDS011;14509;47.992;7.848;2022-08-16T02:27:03;5.83;;;5.20;;
2438;SDS011;14509;47.992;7.848;2022-08-16T02:29:05;7.70;;;5.63;;
2438;SDS011;14509;47.992;7.848;2022-08-16T02:31:11;12.47;;;6.93;;
2438;SDS011;14509;47.992;7.848;2022-08-16T02:33:14;6.90;;;6.30;;
2438;SDS011;14509;47.992;7.848;2022-08-16T02:35:17;6.47;;;5.87;;
2438;SDS011;14509;47.992;7.848;2022-08-16T02:37:19;7.50;;;6.53;;
2438;SDS011;14509;47.992;7.848;2022-08-16T02:39:21;7.20;;;6.00;;
2438;SDS011;14509;47.992;7.848;2022-08-16T02:41:25;7.47;;;6.70;;
2438;SDS011;14509;47.992;7.848;2022-08-16T02:43:28;6.97;;;6.27;;
2438;SDS011;14509;47.992;7.848;2022-08-16T02:45:32;5.90;;;5.40;;
2438;SDS011;14509;47.992;7.848;2022-08-16T02:47:35;9.47;;;6.80;;
2438;SDS011;14509;47.992;7.848;2022-08-16T02:49:37;10.40;;;6.20;;
2438;SDS011;14509;47.992;7.848;2022-08-16T02:51:40;7.70;;;7.00;;
2438;SDS011;14509;47.992;7.848;2022-08-16T02:53:43;9.63;;;6.80;;
2438;SDS011;14509;47.992;7.848;2022-08-16T02:55:47;9.53;;;7.07;;
2438;SDS011;14509;47.992;7.848;2022-08-16T02:57:49;9.33;;;6.97;;
2438;SDS011;14509;47.992;7.848;2022-08-16T02:59:51;8.07;;;6.40;;
2438;SDS011;14509;47.992;7.848;2022-08-16T03:01:53;9.47;;;7.10;;
2438;SDS011;14509;47.992;7.848;2022-08-16T03:04:02;7.60;;;6.80;;
2438;SDS011;14509;47.992;7.848;2022-08-16T03:06:05;7.03;;;6.33;;
2438;SDS011;14509;47.992;7.848;2022-08-16T03:08:08;9.10;;;6.50;;
2438;SDS011;14509;47.992;7.848;2022-08-16T03:10:15;7.60;;;6.83;;
2438;SDS011;14509;47.992;7.848;2022-08-16T03:12:21;8.93;;;7.10;;
2438;SDS011;14509;47.992;7.848;2022-08-16T03:14:23;7.40;;;6.73;;
2438;SDS011;14509;47.992;7.848;2022-08-16T03:16:30;8.30;;;6.97;;
2438;SDS011;14509;47.992;7.848;2022-08-16T03:18:32;7.57;;;6.87;;
2438;SDS011;14509;47.992;7.848;2022-08-16T03:20:36;8.90;;;7.07;;
2438;SDS011;14509;47.992;7.848;2022-08-16T03:22:40;7.67;;;6.30;;
2438;SDS011;14509;47.992;7.848;2022-08-16T03:24:45;8.20;;;6.90;;
2438;SDS011;14509;47.992;7.848;2022-08-16T03:26:47;9.07;;;7.13;;
2438;SDS011;14509;47.992;7.848;2022-08-16T03:28:49;6.80;;;6.20;;
2438;SDS011;14509;47.992;7.848;2022-08-16T03:30:51;7.17;;;6.43;;
2438;SDS011;14509;47.992;7.848;2022-08-16T03:32:55;6.90;;;6.30;;
2438;SDS011;14509;47.992;7.848;2022-08-16T03:35:00;7.47;;;6.67;;
2438;SDS011;14509;47.992;7.848;2022-08-16T03:37:03;7.73;;;7.00;;
2438;SDS011;14509;47.992;7.848;2022-08-16T03:39:08;7.60;;;6.90;;
2438;SDS011;14509;47.992;7.848;2022-08-16T03:41:10;7.57;;;6.87;;
2438;SDS011;14509;47.992;7.848;2022-08-16T03:43:13;7.00;;;6.20;;
2438;SDS011;14509;47.992;7.848;2022-08-16T03:45:15;10.87;;;7.40;;
2438;SDS011;14509;47.992;7.848;2022-08-16T03:47:18;6.73;;;6.13;;
2438;SDS011;14509;47.992;7.848;2022-08-16T03:49:21;7.50;;;6.90;;
2438;SDS011;14509;47.992;7.848;2022-08-16T03:51:27;8.57;;;6.20;;
2438;SDS011;14509;47.992;7.848;2022-08-16T03:53:36;7.53;;;6.87;;
2438;SDS011;14509;47.992;7.848;2022-08-16T03:55:39;8.73;;;7.30;;
2438;SDS011;14509;47.992;7.848;2022-08-16T03:57:41;8.40;;;7.63;;
2438;SDS011;14509;47.992;7.848;2022-08-16T03:59:43;8.73;;;5.87;;
2438;SDS011;14509;47.992;7.848;2022-08-16T04:01:47;7.57;;;6.70;;
2438;SDS011;14509;47.992;7.848;2022-08-16T04:03:50;7.73;;;7.00;;
2438;SDS011;14509;47.992;7.848;2022-08-16T04:05:52;10.47;;;7.00;;
2438;SDS011;14509;47.992;7.848;2022-08-16T04:07:54;7.40;;;6.70;;
2438;SDS011;14509;47.992;7.848;2022-08-16T04:09:58;7.40;;;6.80;;
2438;SDS011;14509;47.992;7.848;2022-08-16T04:12:01;7.77;;;6.67;;
2438;SDS011;14509;47.992;7.848;2022-08-16T04:14:04;8.03;;;7.20;;
2438;SDS011;14509;47.992;7.848;2022-08-16T04:16:09;8.30;;;7.37;;
2438;SDS011;14509;47.992;7.848;2022-08-16T04:18:13;10.00;;;7.30;;
2438;SDS011;14509;47.992;7.848;2022-08-16T04:20:15;8.33;;;7.30;;
2438;SDS011;14509;47.992;7.848;2022-08-16T04:22:17;7.73;;;7.03;;
2438;SDS011;14509;47.992;7.848;2022-08-16T04:24:24;9.60;;;8.23;;
2438;SDS011;14509;47.992;7.848;2022-08-16T04:26:28;7.80;;;6.90;;
2438;SDS011;14509;47.992;7.848;2022-08-16T04:28:30;7.50;;;6.73;;
2438;SDS011;14509;47.992;7.848;2022-08-16T04:30:32;7.73;;;7.00;;
2438;SDS011;14509;47.992;7.848;2022-08-16T04:32:34;14.23;;;6.90;;
2438;SDS011;14509;47.992;7.848;2022-08-16T04:34:36;7.60;;;6.90;;
2438;SDS011;14509;47.992;7.848;2022-08-16T04:36:39;8.77;;;7.33;;
2438;SDS011;14509;47.992;7.848;2022-08-16T04:38:41;8.87;;;7.97;;
2438;SDS011;14509;47.992;7.848;2022-08-16T04:40:44;7.03;;;6.43;;
2438;SDS011;14509;47.992;7.848;2022-08-16T04:42:49;6.47;;;5.83;;
2438;SDS011;14509;47.992;7.848;2022-08-16T04:44:51;8.77;;;7.30;;
2438;SDS011;14509;47.992;7.848;2022-08-16T04:47:00;8.00;;;7.20;;
2438;SDS011;14509;47.992;7.848;2022-08-16T04:49:02;7.33;;;6.63;;
2438;SDS011;14509;47.992;7.848;2022-08-16T04:51:08;9.00;;;7.40;;
2438;SDS011;14509;47.992;7.848;2022-08-16T04:53:15;9.13;;;7.03;;
2438;SDS011;14509;47.992;7.848;2022-08-16T04:55:19;8.33;;;7.30;;
2438;SDS011;14509;47.992;7.848;2022-08-16T04:57:22;8.83;;;7.97;;
2438;SDS011;14509;47.992;7.848;2022-08-16T04:59:26;7.47;;;6.73;;
2438;SDS011;14509;47.992;7.848;2022-08-16T05:01:28;7.37;;;6.60;;
2438;SDS011;14509;47.992;7.848;2022-08-16T05:03:30;7.17;;;6.47;;
2438;SDS011;14509;47.992;7.848;2022-08-16T05:05:33;7.33;;;6.70;;
2438;SDS011;14509;47.992;7.848;2022-08-16T05:07:36;7.87;;;6.13;;
2438;SDS011;14509;47.992;7.848;2022-08-16T05:09:38;7.40;;;6.80;;
2438;SDS011;14509;47.992;7.848;2022-08-16T05:11:40;7.73;;;6.93;;
2438;SDS011;14509;47.992;7.848;2022-08-16T05:13:44;9.33;;;6.50;;
2438;SDS011;14509;47.992;7.848;2022-08-16T05:15:55;8.13;;;6.77;;
2438;SDS011;14509;47.992;7.848;2022-08-16T05:17:59;7.80;;;6.50;;
2438;SDS011;14509;47.992;7.848;2022-08-16T05:20:07;7.83;;;7.00;;
2438;SDS011;14509;47.992;7.848;2022-08-16T05:22:13;8.67;;;7.87;;
2438;SDS011;14509;47.992;7.848;2022-08-16T05:24:19;7.23;;;6.53;;
2438;SDS011;14509;47.992;7.848;2022-08-16T05:26:22;7.93;;;6.90;;
2438;SDS011;14509;47.992;7.848;2022-08-16T05:28:24;6.83;;;6.23;;
2438;SDS011;14509;47.992;7.848;2022-08-16T05:30:28;10.70;;;7.33;;
2438;SDS011;14509;47.992;7.848;2022-08-16T05:32:32;7.90;;;7.10;;
2438;SDS011;14509;47.992;7.848;2022-08-16T05:34:35;9.23;;;6.90;;
2438;SDS011;14509;47.992;7.848;2022-08-16T05:36:37;7.93;;;7.23;;
2438;SDS011;14509;47.992;7.848;2022-08-16T05:38:41;7.57;;;6.83;;
2438;SDS011;14509;47.992;7.848;2022-08-16T05:40:47;8.07;;;6.80;;
2438;SDS011;14509;47.992;7.848;2022-08-16T05:42:49;8.43;;;7.47;;
2438;SDS011;14509;47.992;7.848;2022-08-16T05:44:52;7.87;;;6.50;;
2438;SDS011;14509;47.992;7.848;2022-08-16T05:46:55;7.27;;;6.70;;
2438;SDS011;14509;47.992;7.848;2022-08-16T05:49:00;7.40;;;6.73;;
2438;SDS011;14509;47.992;7.848;2022-08-16T05:51:02;9.13;;;6.20;;
2438;SDS011;14509;47.992;7.848;2022-08-16T05:53:07;9.03;;;6.40;;
2438;SDS011;14509;47.992;7.848;2022-08-16T05:55:14;9.03;;;6.20;;
2438;SDS011;14509;47.992;7.848;2022-08-16T05:57:17;7.93;;;7.13;;
2438;SDS011;14509;47.992;7.848;2022-08-16T05:59:20;6.93;;;6.10;;
2438;SDS011;14509;47.992;7.848;2022-08-16T06:01:22;12.13;;;8.43;;
2438;SDS011;14509;47.992;7.848;2022-08-16T06:03:26;8.37;;;6.93;;
2438;SDS011;14509;47.992;7.848;2022-08-16T06:05:35;7.40;;;6.80;;
2438;SDS011;14509;47.992;7.848;2022-08-16T06:07:37;7.77;;;6.47;;
2438;SDS011;14509;47.992;7.848;2022-08-16T06:09:46;16.23;;;8.50;;
2438;SDS011;14509;47.992;7.848;2022-08-16T06:11:49;8.30;;;7.50;;
2438;SDS011;14509;47.992;7.848;2022-08-16T06:13:52;7.77;;;7.03;;
2438;SDS011;14509;47.992;7.848;2022-08-16T06:16:05;6.87;;;6.27;;
2438;SDS011;14509;47.992;7.848;2022-08-16T06:18:11;7.30;;;6.60;;
2438;SDS011;14509;47.992;7.848;2022-08-16T06:20:14;6.87;;;6.17;;
2438;SDS011;14509;47.992;7.848;2022-08-16T06:22:19;8.73;;;7.93;;
2438;SDS011;14509;47.992;7.848;2022-08-16T06:24:21;6.67;;;6.07;;
2438;SDS011;14509;47.992;7.848;2022-08-16T06:26:23;9.20;;;6.47;;
2438;SDS011;14509;47.992;7.848;2022-08-16T06:28:25;6.30;;;5.57;;
2438;SDS011;14509;47.992;7.848;2022-08-16T06:30:27;7.13;;;6.53;;
2438;SDS011;14509;47.992;7.848;2022-08-16T06:32:31;9.40;;;6.37;;
2438;SDS011;14509;47.992;7.848;2022-08-16T06:34:33;7.63;;;6.93;;
2438;SDS011;14509;47.992;7.848;2022-08-16T06:36:35;7.63;;;6.40;;
2438;SDS011;14509;47.992;7.848;2022-08-16T06:38:50;9.90;;;7.40;;
2438;SDS011;14509;47.992;7.848;2022-08-16T06:40:58;7.03;;;6.33;;
2438;SDS011;14509;47.992;7.848;2022-08-16T06:42:59;6.07;;;5.57;;
2438;SDS011;14509;47.992;7.848;2022-08-16T06:45:22;6.80;;;6.10;;
2438;SDS011;14509;47.992;7.848;2022-08-16T06:47:32;7.03;;;6.33;;
2438;SDS011;14509;47.992;7.848;2022-08-16T06:49:34;6.90;;;5.30;;
2438;SDS011;14509;47.992;7.848;2022-08-16T06:51:36;7.60;;;6.60;;
2438;SDS011;14509;47.992;7.848;2022-08-16T06:53:40;7.23;;;6.67;;
2438;SDS011;14509;47.992;7.848;2022-08-16T06:55:43;7.17;;;6.47;;
2438;SDS011;14509;47.992;7.848;2022-08-16T06:57:47;7.93;;;6.40;;
2438;SDS011;14509;47.992;7.848;2022-08-16T06:59:52;6.77;;;6.17;;
2438;SDS011;14509;47.992;7.848;2022-08-16T07:01:57;6.37;;;5.77;;
2438;SDS011;14509;47.992;7.848;2022-08-16T07:04:02;6.90;;;6.00;;
2438;SDS011;14509;47.992;7.848;2022-08-16T07:06:08;6.10;;;5.60;;
2438;SDS011;14509;47.992;7.848;2022-08-16T07:08:15;5.90;;;5.50;;
2438;SDS011;14509;47.992;7.848;2022-08-16T07:10:17;6.63;;;6.03;;
2438;SDS011;14509;47.992;7.848;2022-08-16T07:12:21;7.37;;;5.73;;
2438;SDS011;14509;47.992;7.848;2022-08-16T07:14:24;6.13;;;5.50;;
2438;SDS011;14509;47.992;7.848;2022-08-16T07:16:27;6.80;;;6.10;;
2438;SDS011;14509;47.992;7.848;2022-08-16T07:18:31;9.73;;;5.77;;
2438;SDS011;14509;47.992;7.848;2022-08-16T07:20:34;6.73;;;6.13;;
2438;SDS011;14509;47.992;7.848;2022-08-16T07:22:37;7.03;;;6.33;;
2438;SDS011;14509;47.992;7.848;2022-08-16T07:24:43;6.10;;;5.60;;
2438;SDS011;14509;47.992;7.848;2022-08-16T07:26:45;8.97;;;5.60;;
2438;SDS011;14509;47.992;7.848;2022-08-16T07:28:50;6.17;;;5.57;;
2438;SDS011;14509;47.992;7.848;2022-08-16T07:30:52;7.13;;;5.40;;
2438;SDS011;14509;47.992;7.848;2022-08-16T07:33:03;6.10;;;5.57;;
2438;SDS011;14509;47.992;7.848;2022-08-16T07:35:06;6.20;;;5.70;;
2438;SDS011;14509;47.992;7.848;2022-08-16T07:37:09;7.90;;;5.50;;
2438;SDS011;14509;47.992;7.848;2022-08-16T07:39:27;10.50;;;6.53;;
2438;SDS011;14509;47.992;7.848;2022-08-16T07:41:29;5.60;;;5.10;;
2438;SDS011;14509;47.992;7.848;2022-08-16T07:43:34;7.87;;;6.50;;
2438;SDS011;14509;47.992;7.848;2022-08-16T07:45:40;6.50;;;5.90;;
2438;SDS011;14509;47.992;7.848;2022-08-16T07:47:42;7.00;;;6.07;;
2438;SDS011;14509;47.992;7.848;2022-08-16T07:49:46;7.27;;;5.50;;
2438;SDS011;14509;47.992;7.848;2022-08-16T07:51:48;9.80;;;6.10;;
2438;SDS011;14509;47.992;7.848;2022-08-16T07:53:50;8.53;;;5.53;;
2438;SDS011;14509;47.992;7.848;2022-08-16T07:55:54;5.90;;;5.40;;
2438;SDS011;14509;47.992;7.848;2022-08-16T07:58:01;5.40;;;5.00;;
2438;SDS011;14509;47.992;7.848;2022-08-16T08:00:04;5.90;;;5.40;;
2438;SDS011;14509;47.992;7.848;2022-08-16T08:02:16;6.00;;;5.40;;
2438;SDS011;14509;47.992;7.848;2022-08-16T08:04:18;7.30;;;5.70;;
2438;SDS011;14509;47.992;7.848;2022-08-16T08:06:22;5.67;;;5.03;;
2438;SDS011;14509;47.992;7.848;2022-08-16T08:08:29;6.33;;;5.73;;
2438;SDS011;14509;47.992;7.848;2022-08-16T08:10:32;5.87;;;5.37;;
2438;SDS011;14509;47.992;7.848;2022-08-16T08:12:35;6.80;;;6.20;;
2438;SDS011;14509;47.992;7.848;2022-08-16T08:14:39;6.40;;;5.77;;
2438;SDS011;14509;47.992;7.848;2022-08-16T08:16:41;9.23;;;5.77;;
2438;SDS011;14509;47.992;7.848;2022-08-16T08:18:48;6.07;;;5.50;;
2438;SDS011;14509;47.992;7.848;2022-08-16T08:20:50;8.70;;;5.60;;
2438;SDS011;14509;47.992;7.848;2022-08-16T08:22:54;5.33;;;4.90;;
2438;SDS011;14509;47.992;7.848;2022-08-16T08:24:59;8.80;;;5.83;;
2438;SDS011;14509;47.992;7.848;2022-08-16T08:27:02;6.20;;;5.60;;
2438;SDS011;14509;47.992;7.848;2022-08-16T08:29:07;6.87;;;5.13;;
2438;SDS011;14509;47.992;7.848;2022-08-16T08:31:10;5.20;;;4.70;;
2438;SDS011;14509;47.992;7.848;2022-08-16T08:33:12;5.67;;;5.17;;
2438;SDS011;14509;47.992;7.848;2022-08-16T08:35:17;5.20;;;4.80;;
2438;SDS011;14509;47.992;7.848;2022-08-16T08:37:19;6.00;;;5.50;;
2438;SDS011;14509;47.992;7.848;2022-08-16T08:39:22;6.27;;;5.10;;
2438;SDS011;14509;47.992;7.848;2022-08-16T08:41:24;5.73;;;5.10;;
2438;SDS011;14509;47.992;7.848;2022-08-16T08:43:28;5.20;;;4.80;;
2438;SDS011;14509;47.992;7.848;2022-08-16T08:45:34;5.23;;;4.33;;
2438;SDS011;14509;47.992;7.848;2022-08-16T08:47:36;5.73;;;5.07;;
2438;SDS011;14509;47.992;7.848;2022-08-16T08:49:39;5.73;;;5.13;;
2438;SDS011;14509;47.992;7.848;2022-08-16T08:51:43;5.97;;;5.40;;
2438;SDS011;14509;47.992;7.848;2022-08-16T08:53:47;7.60;;;5.87;;
2438;SDS011;14509;47.992;7.848;2022-08-16T08:55:49;5.83;;;4.97;;
2438;SDS011;14509;47.992;7.848;2022-08-16T08:57:51;11.73;;;5.30;;
2438;SDS011;14509;47.992;7.848;2022-08-16T09:00:26;5.47;;;4.97;;
2438;SDS011;14509;47.992;7.848;2022-08-16T09:02:30;6.30;;;5.43;;
2438;SDS011;14509;47.992;7.848;2022-08-16T09:04:32;6.63;;;6.03;;
2438;SDS011;14509;47.992;7.848;2022-08-16T09:06:37;7.87;;;5.27;;
2438;SDS011;14509;47.992;7.848;2022-08-16T09:08:40;6.20;;;4.77;;
2438;SDS011;14509;47.992;7.848;2022-08-16T09:10:46;5.70;;;5.00;;
2438;SDS011;14509;47.992;7.848;2022-08-16T09:12:48;4.00;;;3.70;;
2438;SDS011;14509;47.992;7.848;2022-08-16T09:14:54;5.67;;;4.60;;
2438;SDS011;14509;47.992;7.848;2022-08-16T09:17:00;5.93;;;5.00;;
2438;SDS011;14509;47.992;7.848;2022-08-16T09:19:01;6.93;;;4.60;;
2438;SDS011;14509;47.992;7.848;2022-08-16T09:21:03;7.87;;;4.87;;
2438;SDS011;14509;47.992;7.848;2022-08-16T09:23:07;5.87;;;5.23;;
2438;SDS011;14509;47.992;7.848;2022-08-16T09:25:17;5.30;;;4.43;;
2438;SDS011;14509;47.992;7.848;2022-08-16T09:27:20;6.23;;;5.50;;
2438;SDS011;14509;47.992;7.848;2022-08-16T09:29:22;6.10;;;5.30;;
2438;SDS011;14509;47.992;7.848;2022-08-16T09:31:24;7.00;;;5.03;;
2438;SDS011;14509;47.992;7.848;2022-08-16T09:33:26;7.70;;;4.30;;
2438;SDS011;14509;47.992;7.848;2022-08-16T09:35:28;6.27;;;4.70;;
2438;SDS011;14509;47.992;7.848;2022-08-16T09:37:30;5.53;;;4.90;;
2438;SDS011;14509;47.992;7.848;2022-08-16T09:39:33;5.13;;;4.53;;
2438;SDS011;14509;47.992;7.848;2022-08-16T09:41:36;4.90;;;4.17;;
2438;SDS011;14509;47.992;7.848;2022-08-16T09:43:38;13.27;;;6.50;;
2438;SDS011;14509;47.992;7.848;2022-08-16T09:45:40;12.97;;;4.90;;
2438;SDS011;14509;47.992;7.848;2022-08-16T09:47:42;5.20;;;4.80;;
2438;SDS011;14509;47.992;7.848;2022-08-16T09:49:44;4.67;;;4.27;;
2438;SDS011;14509;47.992;7.848;2022-08-16T09:51:46;7.20;;;5.03;;
2438;SDS011;14509;47.992;7.848;2022-08-16T09:53:52;5.13;;;4.63;;
2438;SDS011;14509;47.992;7.848;2022-08-16T09:55:55;6.10;;;5.53;;
2438;SDS011;14509;47.992;7.848;2022-08-16T09:58:01;5.40;;;4.87;;
2438;SDS011;14509;47.992;7.848;2022-08-16T10:00:05;6.97;;;5.93;;
2438;SDS011;14509;47.992;7.848;2022-08-16T10:02:12;5.07;;;4.10;;
2438;SDS011;14509;47.992;7.848;2022-08-16T10:04:15;6.00;;;4.37;;
2438;SDS011;14509;47.992;7.848;2022-08-16T10:06:17;8.87;;;5.93;;
2438;SDS011;14509;47.992;7.848;2022-08-16T10:08:20;7.37;;;6.77;;
2438;SDS011;14509;47.992;7.848;2022-08-16T10:10:22;4.63;;;4.33;;
2438;SDS011;14509;47.992;7.848;2022-08-16T10:12:25;6.70;;;4.50;;
2438;SDS011;14509;47.992;7.848;2022-08-16T10:14:46;5.07;;;4.60;;
2438;SDS011;14509;47.992;7.848;2022-08-16T10:16:48;4.67;;;4.27;;
2438;SDS011;14509;47.992;7.848;2022-08-16T10:18:50;8.43;;;4.70;;
2438;SDS011;14509;47.992;7.848;2022-08-16T10:20:52;4.20;;;3.80;;
2438;SDS011;14509;47.992;7.848;2022-08-16T10:22:55;4.40;;;4.00;;
2438;SDS011;14509;47.992;7.848;2022-08-16T10:24:57;5.10;;;4.60;;
2438;SDS011;14509;47.992;7.848;2022-08-16T10:26:58;5.77;;;4.90;;
2438;SDS011;14509;47.992;7.848;2022-08-16T10:29:01;5.00;;;4.60;;
2438;SDS011;14509;47.992;7.848;2022-08-16T10:31:07;5.33;;;4.67;;
2438;SDS011;14509;47.992;7.848;2022-08-16T10:33:10;4.47;;;4.00;;
2438;SDS011;14509;47.992;7.848;2022-08-16T10:35:13;6.53;;;5.13;;
2438;SDS011;14509;47.992;7.848;2022-08-16T10:37:15;4.90;;;4.10;;
2438;SDS011;14509;47.992;7.848;2022-08-16T10:39:17;6.37;;;3.90;;
2438;SDS011;14509;47.992;7.848;2022-08-16T10:41:19;4.73;;;4.33;;
2438;SDS011;14509;47.992;7.848;2022-08-16T10:43:22;6.40;;;3.80;;
2438;SDS011;14509;47.992;7.848;2022-08-16T10:45:23;5.00;;;4.50;;
2438;SDS011;14509;47.992;7.848;2022-08-16T10:47:27;4.17;;;3.87;;
2438;SDS011;14509;47.992;7.848;2022-08-16T10:49:29;7.17;;;4.20;;
2438;SDS011;14509;47.992;7.848;2022-08-16T10:51:32;8.90;;;4.53;;
2438;SDS011;14509;47.992;7.848;2022-08-16T10:53:37;4.83;;;4.37;;
2438;SDS011;14509;47.992;7.848;2022-08-16T10:55:40;4.57;;;4.17;;
2438;SDS011;14509;47.992;7.848;2022-08-16T10:57:42;4.70;;;4.30;;
2438;SDS011;14509;47.992;7.848;2022-08-16T10:59:44;3.97;;;3.67;;
2438;SDS011;14509;47.992;7.848;2022-08-16T11:01:46;4.63;;;3.93;;
2438;SDS011;14509;47.992;7.848;2022-08-16T11:03:50;10.43;;;3.33;;
2438;SDS011;14509;47.992;7.848;2022-08-16T11:05:52;3.97;;;3.57;;
2438;SDS011;14509;47.992;7.848;2022-08-16T11:07:55;6.87;;;3.30;;
2438;SDS011;14509;47.992;7.848;2022-08-16T11:09:56;4.00;;;3.60;;
2438;SDS011;14509;47.992;7.848;2022-08-16T11:12:01;3.30;;;3.10;;
2438;SDS011;14509;47.992;7.848;2022-08-16T11:14:03;5.80;;;4.83;;
2438;SDS011;14509;47.992;7.848;2022-08-16T11:16:06;4.40;;;3.73;;
2438;SDS011;14509;47.992;7.848;2022-08-16T11:18:09;3.57;;;3.27;;
2438;SDS011;14509;47.992;7.848;2022-08-16T11:20:13;4.10;;;3.80;;
2438;SDS011;14509;47.992;7.848;2022-08-16T11:22:17;4.30;;;3.90;;
2438;SDS011;14509;47.992;7.848;2022-08-16T11:24:19;3.67;;;3.10;;
2438;SDS011;14509;47.992;7.848;2022-08-16T11:26:21;5.87;;;4.23;;
2438;SDS011;14509;47.992;7.848;2022-08-16T11:28:24;4.17;;;3.77;;
2438;SDS011;14509;47.992;7.848;2022-08-16T11:30:26;4.23;;;3.83;;
2438;SDS011;14509;47.992;7.848;2022-08-16T11:32:30;9.57;;;3.30;;
2438;SDS011;14509;47.992;7.848;2022-08-16T11:34:31;6.87;;;3.50;;
2438;SDS011;14509;47.992;7.848;2022-08-16T11:36:35;4.20;;;3.90;;
2438;SDS011;14509;47.992;7.848;2022-08-16T11:38:37;3.97;;;3.57;;
2438;SDS011;14509;47.992;7.848;2022-08-16T11:40:40;3.70;;;3.40;;
2438;SDS011;14509;47.992;7.848;2022-08-16T11:42:46;3.87;;;3.57;;
2438;SDS011;14509;47.992;7.848;2022-08-16T11:44:48;5.20;;;4.30;;
2438;SDS011;14509;47.992;7.848;2022-08-16T11:46:50;4.17;;;3.77;;
2438;SDS011;14509;47.992;7.848;2022-08-16T11:48:52;4.87;;;4.47;;
2438;SDS011;14509;47.992;7.848;2022-08-16T11:50:54;4.23;;;3.93;;
2438;SDS011;14509;47.992;7.848;2022-08-16T11:52:58;4.87;;;4.10;;
2438;SDS011;14509;47.992;7.848;2022-08-16T11:55:01;3.23;;;3.03;;
2438;SDS011;14509;47.992;7.848;2022-08-16T11:57:03;4.53;;;4.13;;
2438;SDS011;14509;47.992;7.848;2022-08-16T11:59:06;4.40;;;4.00;;
2438;SDS011;14509;47.992;7.848;2022-08-16T12:01:07;4.40;;;3.80;;
2438;SDS011;14509;47.992;7.848;2022-08-16T12:03:10;5.17;;;3.73;;
2438;SDS011;14509;47.992;7.848;2022-08-16T12:05:13;4.47;;;3.77;;
2438;SDS011;14509;47.992;7.848;2022-08-16T12:07:16;4.57;;;4.17;;
2438;SDS011;14509;47.992;7.848;2022-08-16T12:09:19;4.63;;;3.27;;
2438;SDS011;14509;47.992;7.848;2022-08-16T12:11:23;4.97;;;3.70;;
2438;SDS011;14509;47.992;7.848;2022-08-16T12:13:26;6.13;;;3.60;;
2438;SDS011;14509;47.992;7.848;2022-08-16T12:15:28;4.50;;;4.07;;
2438;SDS011;14509;47.992;7.848;2022-08-16T12:17:30;5.33;;;3.90;;
2438;SDS011;14509;47.992;7.848;2022-08-16T12:19:32;7.40;;;3.23;;
2438;SDS011;14509;47.992;7.848;2022-08-16T12:21:34;10.27;;;3.93;;
2438;SDS011;14509;47.992;7.848;2022-08-16T12:23:36;5.27;;;3.13;;
2438;SDS011;14509;47.992;7.848;2022-08-16T12:25:40;5.13;;;4.60;;
2438;SDS011;14509;47.992;7.848;2022-08-16T12:27:42;3.97;;;3.67;;
2438;SDS011;14509;47.992;7.848;2022-08-16T12:29:45;4.37;;;4.07;;
2438;SDS011;14509;47.992;7.848;2022-08-16T12:31:48;4.43;;;4.03;;
2438;SDS011;14509;47.992;7.848;2022-08-16T12:33:50;4.03;;;3.73;;
2438;SDS011;14509;47.992;7.848;2022-08-16T12:35:52;6.90;;;3.97;;